• Join FlightAware (Why Join?)
  • Login
  • US Flag 
09:10PM EDT


 

Airport Tracker/Info


-or-


 

Live Flight TrackerFlight Track Log ✈ EGF3681 ✈ 03-Jul-2013 ✈ KORD - KDAY

Flight Track Log - Related Links

Times and Time Zones

All times are in EDT time to prevent confusion due to time zone crossing. See the EGF3681 flight status page for this flight to view local times or setup timezone preferences in your user account.

Time Position Orientation Groundspeed Altitude Reporting Facility
EDT Latitude Longitude Course Direction KTS MPH feet Rate Location/Type
10:48PM 41.9167 -87.9000 95° East 211 243 3,100  Level Chicago TRACON
10:49PM 41.8933 -87.8500 122° Southeast 240 276 4,300 1,140 Climbing Chicago Center
10:50PM 41.9652 -87.5183 98° East  Level FlightAware Approximate
10:50PM 41.8631 -87.7639 115° Southeast 247 284 5,000  Level Chicago Center
10:51PM 41.9526 -87.3922 98° East  Level FlightAware Approximate
10:51PM 41.8850 -87.6661 73° East 280 322 6,200  Level Chicago Center
10:52PM 41.9428 -87.2656 95° East  Level FlightAware Approximate
10:52PM 41.9186 -87.5703 65° Northeast 285 328 8,700  Level Chicago Center
10:53PM 41.9341 -87.1439 95° East  Level FlightAware Approximate
10:53PM 41.9431 -87.4672 72° East 292 336 10,800  Level Chicago Center
10:54PM 41.9417 -87.3528 91° East 306 352 12,900 1,980 Climbing Chicago Center
10:55PM 41.9431 -87.2108 89° East 320 368 14,900 1,920 Climbing Chicago Center
10:56PM 41.9439 -87.0900 89° East 325 374 16,900 1,020 Climbing Chicago Center
10:57PM 41.9458 -86.9556 89° East 371 427 17,000  Climbing Chicago Center
10:58PM 41.9308 -86.8111 98° East 394 453 17,000 300 Level Chicago Center
10:59PM 41.9097 -86.6653 101° East 411 473 17,700 1,260 Climbing Chicago Center
11:00PM 41.8908 -86.5189 100° East 403 464 19,600 1,560 Climbing Chicago Center
11:01PM 41.8706 -86.3794 101° East 386 444 21,000 1,080 Climbing Chicago Center
11:02PM 41.8483 -86.2328 101° East 401 461 21,900 480 Climbing Chicago Center
11:03PM 41.7578 -86.0969 132° Southeast 411 473 22,000  Climbing Chicago Center
11:04PM 41.6767 -85.9819 133° Southeast 427 491 22,000  Level Chicago Center
11:05PM 41.5942 -85.8633 133° Southeast 437 503 22,000 300 Level Chicago Center
11:06PM 41.5139 -85.7472 133° Southeast 432 497 22,700 480 Climbing Chicago Center
11:07PM 41.4328 -85.6339 134° Southeast 429 494 23,000 120 Climbing Chicago Center
11:08PM 41.3517 -85.5139 132° Southeast 441 507 23,000  Level Chicago Center
11:09PM 41.2661 -85.3928 133° Southeast 451 519 23,000 -300 Level Chicago Center
11:10PM 41.1656 -85.2508 133° Southeast 447 514 22,500 -720 Descending Chicago Center
11:11PM 41.0847 -85.1367 133° Southeast 434 499 21,600 -960 Descending Chicago Center
11:12PM 41.0047 -85.0253 134° Southeast 423 487 20,600 -960 Descending Chicago Center
11:13PM 40.9267 -84.9164 133° Southeast 414 476 19,700 -1,020 Descending Chicago Center
11:14PM 40.8589 -84.8239 134° Southeast 400 460 18,800 -1,080 Descending Indianapolis Center
11:15PM 40.7819 -84.7192 134° Southeast 399 459 17,800 -900 Descending Indianapolis Center
11:16PM 40.7058 -84.6119 133° Southeast 392 451 17,000 -900 Descending Indianapolis Center
11:17PM 40.6294 -84.5092 134° Southeast 390 449 16,000 -960 Descending Indianapolis Center
11:18PM 40.5456 -84.4272 143° Southeast 379 436 15,100 -1,200 Descending Indianapolis Center
11:19PM 40.4486 -84.3794 159° South 373 429 13,600 -1,740 Descending Indianapolis Center
11:20PM 40.3333 -84.3206 159° South 341 392 11,300 -1,620 Descending Indianapolis Center
11:21PM 40.2789 -84.2914 158° South 303 349 10,400 -1,560 Descending Indianapolis Center
11:22PM 40.2103 -84.2572 159° South 271 312 8,500 -2,100 Descending Indianapolis Center
11:23PM 40.1442 -84.2228 158° South 258 297 6,200 -2,280 Descending Indianapolis Center